createdAt,value
2023-03-26T00:01:57.756Z,5.31
2023-03-26T00:07:11.742Z,4.00
2023-03-26T00:12:15.083Z,4.82
2023-03-26T00:17:29.254Z,4.78
2023-03-26T00:22:32.924Z,4.91
2023-03-26T00:27:36.848Z,4.73
2023-03-26T00:32:53.959Z,5.18
2023-03-26T00:37:59.407Z,4.78
2023-03-26T00:43:03.386Z,4.05
2023-03-26T00:48:06.745Z,4.60
2023-03-26T00:53:13.222Z,4.63
2023-03-26T00:58:23.126Z,4.35
2023-03-26T01:03:34.417Z,3.46
2023-03-26T01:08:45.815Z,4.77
2023-03-26T01:13:59.346Z,4.76
2023-03-26T01:19:03.326Z,4.09
2023-03-26T01:24:09.020Z,4.89
2023-03-26T01:29:38.585Z,4.38
2023-03-26T01:35:07.188Z,4.89
2023-03-26T01:40:27.379Z,4.29
2023-03-26T01:45:39.354Z,4.01
2023-03-26T01:50:44.320Z,4.44
2023-03-26T01:56:18.291Z,4.13
2023-03-26T02:01:51.032Z,4.16
2023-03-26T02:07:12.509Z,4.33
2023-03-26T02:12:17.447Z,4.10
2023-03-26T02:17:25.272Z,3.31
2023-03-26T02:22:30.945Z,3.60
2023-03-26T02:27:35.003Z,2.67
2023-03-26T02:32:40.014Z,2.74
2023-03-26T02:37:47.867Z,4.49
2023-03-26T02:43:01.902Z,3.83
2023-03-26T02:48:16.313Z,3.49
2023-03-26T02:53:20.233Z,3.91
2023-03-26T02:58:26.345Z,4.17
2023-03-26T03:03:30.993Z,3.56
2023-03-26T03:08:38.895Z,5.06
2023-03-26T03:13:43.438Z,5.30
2023-03-26T03:18:48.460Z,3.54
2023-03-26T03:23:53.126Z,4.31
2023-03-26T03:28:58.624Z,4.46
2023-03-26T03:34:01.996Z,4.29
2023-03-26T03:39:06.300Z,4.35
2023-03-26T03:44:19.733Z,4.21
2023-03-26T03:49:23.891Z,6.30
2023-03-26T03:54:27.281Z,6.96
2023-03-26T03:59:30.707Z,7.08
2023-03-26T04:04:35.205Z,7.86
2023-03-26T04:09:38.820Z,7.86
2023-03-26T04:14:42.278Z,8.16
2023-03-26T04:19:45.872Z,6.66
2023-03-26T04:24:50.581Z,7.42
2023-03-26T04:30:07.146Z,8.50
2023-03-26T04:35:15.236Z,7.72
2023-03-26T04:40:23.050Z,8.34
2023-03-26T04:45:26.708Z,7.62
2023-03-26T04:50:30.375Z,8.30
2023-03-26T04:55:46.353Z,8.35
2023-03-26T05:00:50.494Z,8.21
2023-03-26T05:05:54.106Z,8.16
2023-03-26T05:10:58.060Z,7.17
2023-03-26T05:16:01.521Z,7.93
2023-03-26T05:21:05.727Z,7.88
2023-03-26T05:26:10.965Z,8.36
2023-03-26T05:31:16.345Z,8.39
2023-03-26T05:36:19.984Z,7.13
2023-03-26T05:41:23.762Z,8.01
2023-03-26T05:46:28.071Z,8.39
2023-03-26T05:51:32.648Z,8.02
2023-03-26T05:56:36.866Z,7.87
2023-03-26T06:01:51.708Z,8.29
2023-03-26T06:06:55.063Z,8.72
2023-03-26T06:11:58.753Z,8.94
2023-03-26T06:17:02.380Z,8.70
2023-03-26T06:22:13.845Z,9.09
2023-03-26T06:27:17.369Z,8.11
2023-03-26T06:32:20.851Z,9.14
2023-03-26T06:37:25.329Z,9.66
2023-03-26T06:43:07.906Z,9.30
2023-03-26T06:47:52.044Z,9.64
2023-03-26T06:52:56.489Z,9.54
2023-03-26T06:58:00.214Z,9.82
2023-03-26T07:03:05.106Z,9.76
2023-03-26T07:08:11.242Z,10.26
2023-03-26T07:13:14.554Z,10.33
2023-03-26T07:18:17.909Z,9.23
2023-03-26T07:23:22.234Z,9.40
2023-03-26T07:29:05.163Z,10.26
2023-03-26T07:34:17.879Z,10.36
2023-03-26T07:39:47.306Z,10.87
2023-03-26T07:45:04.465Z,10.14
2023-03-26T07:50:09.187Z,10.77
2023-03-26T07:55:23.477Z,11.15
2023-03-26T08:00:54.281Z,11.61
2023-03-26T08:06:10.630Z,11.66
2023-03-26T08:11:33.535Z,11.66
2023-03-26T08:16:48.821Z,11.62
2023-03-26T08:22:07.784Z,11.71
2023-03-26T08:27:38.597Z,12.60
2023-03-26T08:32:42.703Z,12.47
2023-03-26T08:37:46.376Z,11.97
2023-03-26T08:43:17.380Z,12.80
2023-03-26T08:48:36.034Z,13.18
2023-03-26T08:54:15.187Z,13.82
2023-03-26T08:59:30.660Z,14.29
2023-03-26T09:04:36.955Z,14.38
2023-03-26T09:10:16.704Z,14.14
2023-03-26T09:15:36.917Z,14.66
2023-03-26T09:20:52.416Z,14.68
2023-03-26T09:26:26.576Z,14.47
2023-03-26T09:31:37.209Z,14.31
2023-03-26T09:37:12.515Z,14.36
2023-03-26T09:42:35.066Z,14.42
2023-03-26T09:48:22.320Z,14.33
2023-03-26T09:53:44.762Z,14.75
2023-03-26T09:59:04.416Z,14.28
2023-03-26T10:04:41.126Z,14.04
2023-03-26T10:09:55.194Z,14.24
2023-03-26T10:15:09.434Z,14.76
2023-03-26T10:20:27.381Z,13.87
2023-03-26T10:26:00.376Z,14.94
2023-03-26T10:31:25.746Z,15.11
2023-03-26T10:36:39.915Z,15.35
2023-03-26T10:42:00.204Z,14.49
2023-03-26T10:47:33.624Z,15.13
2023-03-26T10:52:47.886Z,15.16
2023-03-26T10:57:57.150Z,13.83
2023-03-26T11:03:28.766Z,15.61
2023-03-26T11:08:46.596Z,15.11
2023-03-26T11:13:59.502Z,15.58
2023-03-26T11:19:17.530Z,15.29
2023-03-26T11:24:51.340Z,15.31
2023-03-26T11:30:14.229Z,15.64
2023-03-26T11:35:39.853Z,15.89
2023-03-26T11:40:51.453Z,15.51
2023-03-26T11:46:13.894Z,15.10
2023-03-26T11:51:34.727Z,15.35
2023-03-26T11:57:05.595Z,15.18
2023-03-26T12:02:10.810Z,15.41
2023-03-26T12:07:35.675Z,15.40
2023-03-26T12:12:42.444Z,15.64
2023-03-26T12:17:48.843Z,15.82
2023-03-26T12:23:00.358Z,15.58
2023-03-26T12:28:16.878Z,15.72
2023-03-26T12:33:27.044Z,15.96
2023-03-26T12:38:41.560Z,14.96
2023-03-26T12:44:48.897Z,16.43
2023-03-26T12:49:19.399Z,16.33
2023-03-26T12:54:49.813Z,16.47
2023-03-26T13:00:10.466Z,15.59
2023-03-26T13:05:16.891Z,15.65
2023-03-26T13:10:38.009Z,15.64
2023-03-26T13:15:52.037Z,15.62
2023-03-26T13:20:56.066Z,16.09
2023-03-26T13:26:19.501Z,15.45
2023-03-26T13:31:25.942Z,15.68
2023-03-26T13:36:40.065Z,14.31
2023-03-26T13:42:05.402Z,15.09
2023-03-26T13:47:21.096Z,14.36
2023-03-26T13:52:31.666Z,14.42
2023-03-26T13:57:42.334Z,14.95
2023-03-26T14:02:54.412Z,14.61
2023-03-26T14:08:24.267Z,14.63
2023-03-26T14:13:34.529Z,14.77
2023-03-26T14:19:00.152Z,14.45
2023-03-26T14:24:18.334Z,14.71
2023-03-26T14:29:31.512Z,14.71
2023-03-26T14:35:18.177Z,14.86
2023-03-26T14:40:33.559Z,14.67
2023-03-26T14:46:09.980Z,14.76
2023-03-26T14:51:39.606Z,14.50
2023-03-26T14:57:14.113Z,14.18
2023-03-26T15:02:44.684Z,14.48
2023-03-26T15:08:13.060Z,14.20
2023-03-26T15:13:47.568Z,14.14
2023-03-26T15:19:39.352Z,12.93
2023-03-26T15:25:13.637Z,13.98
2023-03-26T15:30:58.946Z,13.99
2023-03-26T15:36:14.950Z,13.93
2023-03-26T15:41:48.097Z,13.83
2023-03-26T15:47:27.313Z,13.78
2023-03-26T15:52:42.036Z,13.79
2023-03-26T15:58:06.569Z,13.78
2023-03-26T16:03:12.674Z,13.79
2023-03-26T16:08:19.486Z,13.60
2023-03-26T16:13:33.239Z,13.46
2023-03-26T16:18:43.984Z,13.35
2023-03-26T16:23:49.955Z,13.26
2023-03-26T16:28:59.336Z,13.31
2023-03-26T16:34:08.692Z,13.32
2023-03-26T16:39:20.454Z,13.36
2023-03-26T16:45:20.493Z,13.27
2023-03-26T16:50:42.195Z,13.23
2023-03-26T16:55:54.153Z,11.54
2023-03-26T17:01:09.697Z,13.03
2023-03-26T17:06:46.894Z,11.78
2023-03-26T17:11:56.101Z,12.59
2023-03-26T17:17:23.598Z,12.88
2023-03-26T17:22:56.966Z,12.70
2023-03-26T17:28:18.313Z,12.18
2023-03-26T17:33:32.441Z,11.60
2023-03-26T17:38:35.031Z,11.53
2023-03-26T17:43:41.398Z,10.78
2023-03-26T17:48:47.997Z,10.35
2023-03-26T17:54:06.276Z,10.12
2023-03-26T17:59:27.216Z,10.22
2023-03-26T18:04:44.407Z,10.10
2023-03-26T18:10:00.909Z,9.82
2023-03-26T18:15:27.491Z,9.59
2023-03-26T18:20:32.497Z,9.46
2023-03-26T18:25:44.529Z,9.37
2023-03-26T18:30:53.993Z,9.09
2023-03-26T18:35:59.161Z,8.37
2023-03-26T18:41:01.856Z,8.44
2023-03-26T18:46:04.906Z,8.30
2023-03-26T18:51:08.754Z,8.63
2023-03-26T18:56:29.317Z,8.71
2023-03-26T19:01:35.577Z,8.72
2023-03-26T19:06:41.800Z,8.71
2023-03-26T19:11:46.151Z,8.00
2023-03-26T19:16:57.020Z,8.72
2023-03-26T19:22:00.057Z,8.75
2023-03-26T19:27:03.450Z,8.61
2023-03-26T19:32:27.222Z,8.87
2023-03-26T19:37:31.511Z,8.87
2023-03-26T19:48:12.138Z,8.31
2023-03-26T19:51:18.069Z,8.99
2023-03-26T19:53:25.023Z,8.47
2023-03-26T19:58:29.757Z,8.78
2023-03-26T20:03:45.147Z,8.86
2023-03-26T20:08:53.350Z,8.70
2023-03-26T20:13:56.522Z,8.66
2023-03-26T20:19:03.170Z,8.53
2023-03-26T20:24:13.206Z,8.18
2023-03-26T20:29:15.859Z,8.61
2023-03-26T20:34:30.300Z,8.58
2023-03-26T20:39:34.195Z,8.33
2023-03-26T20:44:36.793Z,8.17
2023-03-26T20:49:39.730Z,8.23
2023-03-26T20:54:43.029Z,8.11
2023-03-26T21:00:01.161Z,8.23
2023-03-26T21:05:19.831Z,8.58
2023-03-26T21:10:29.675Z,8.47
2023-03-26T21:15:39.949Z,8.50
2023-03-26T21:20:48.117Z,8.42
2023-03-26T21:26:10.206Z,7.84
2023-03-26T21:31:22.005Z,8.72
2023-03-26T21:36:25.037Z,8.63
2023-03-26T21:42:04.854Z,8.56
2023-03-26T21:47:10.033Z,8.38
2023-03-26T21:52:19.400Z,8.46
2023-03-26T21:57:32.375Z,8.30
2023-03-26T22:03:10.782Z,8.32
2023-03-26T22:08:46.252Z,8.13
2023-03-26T22:13:48.966Z,7.55
2023-03-26T22:18:53.341Z,8.05
2023-03-26T22:23:56.037Z,7.94
2023-03-26T22:28:59.007Z,7.86
2023-03-26T22:34:01.535Z,7.82
2023-03-26T22:39:05.365Z,-141.04
2023-03-26T22:44:18.908Z,-141.04
2023-03-26T22:49:22.149Z,-141.04
2023-03-26T22:54:24.973Z,-141.04
2023-03-26T22:59:27.645Z,-141.04
2023-03-26T23:04:32.378Z,-141.04
2023-03-26T23:09:35.950Z,-141.04
2023-03-26T23:14:44.429Z,-141.04
2023-03-26T23:19:47.600Z,-141.04
2023-03-26T23:24:50.300Z,-141.04
2023-03-26T23:29:53.113Z,-141.04
2023-03-26T23:34:58.703Z,-141.04
2023-03-26T23:40:01.333Z,-141.04
2023-03-26T23:45:09.052Z,-141.04
2023-03-26T23:50:12.188Z,-141.04
2023-03-26T23:55:14.807Z,-141.04
